Time;durP1;ratioP1;P1;durP2;ratioP2;P2;SDS_P1;SDS_P2;PMS_P1;PMS_P2;Temp;Humidity;BMP_temperature;BMP_pressure;BME280_temperature;BME280_humidity;BME280_pressure;Samples;Min_cycle;Max_cycle;Signal;HPM_P1;HPM_P2
2022/01/04 00:03:59;;;;;;;3.60;3.27;;;9.70;99.90;;;;;;12914608;23;20200;-76
2022/01/04 00:09:02;;;;;;;4.27;3.40;;;9.80;99.90;;;;;;12886018;23;20657;-74
2022/01/04 00:14:03;;;;;;;5.03;3.20;;;9.80;99.90;;;;;;12887912;23;20207;-74
2022/01/04 00:19:03;;;;;;;4.03;3.47;;;9.70;99.90;;;;;;12886743;23;20239;-75
2022/01/04 00:24:07;;;;;;;7.13;4.60;;;9.70;99.90;;;;;;12887903;23;20204;-75
2022/01/04 00:29:11;;;;;;;7.87;5.30;;;9.70;99.90;;;;;;12913346;23;20238;-74
2022/01/04 00:34:11;;;;;;;8.10;5.30;;;9.70;99.90;;;;;;12886830;23;20575;-74
2022/01/04 00:39:12;;;;;;;9.43;5.77;;;9.70;99.90;;;;;;12913018;23;20205;-74
2022/01/04 00:44:13;;;;;;;7.60;5.90;;;9.70;99.90;;;;;;12886283;23;20199;-74
2022/01/04 00:49:17;;;;;;;9.53;7.10;;;9.70;99.90;;;;;;12913408;23;20234;-77
2022/01/04 00:54:18;;;;;;;10.90;7.90;;;9.70;99.90;;;;;;12886236;23;20276;-76
2022/01/04 00:59:18;;;;;;;12.40;8.13;;;9.70;99.90;;;;;;12912955;23;20212;-76
2022/01/04 01:04:19;;;;;;;9.23;7.47;;;9.70;99.90;;;;;;12886709;23;20264;-76
2022/01/04 01:09:27;;;;;;;7.97;7.13;;;9.70;99.90;;;;;;12885877;23;20208;-79
2022/01/04 01:14:28;;;;;;;9.20;7.03;;;9.70;99.90;;;;;;12914327;23;20213;-74
2022/01/04 01:19:28;;;;;;;11.73;8.07;;;9.70;99.90;;;;;;12912148;23;20213;-74
2022/01/04 01:24:29;;;;;;;9.30;6.80;;;9.70;99.90;;;;;;12886336;23;20216;-74
2022/01/04 01:29:30;;;;;;;10.37;7.40;;;9.80;99.90;;;;;;12885213;22;20697;-74
2022/01/04 01:34:30;;;;;;;11.77;7.50;;;9.80;99.90;;;;;;12912320;23;20276;-76
2022/01/04 01:39:31;;;;;;;9.60;6.23;;;9.90;99.90;;;;;;12912116;23;20217;-73
2022/01/04 01:44:32;;;;;;;11.60;6.97;;;9.90;99.90;;;;;;12912306;23;20210;-74
2022/01/04 01:49:32;;;;;;;8.17;5.20;;;9.90;99.90;;;;;;12912259;23;20204;-74
2022/01/04 01:54:33;;;;;;;9.97;6.27;;;10.00;99.90;;;;;;12915700;23;20207;-76
2022/01/04 01:59:34;;;;;;;8.80;6.67;;;10.00;99.90;;;;;;12915718;23;20718;-75
2022/01/04 02:04:34;;;;;;;10.47;6.90;;;10.00;99.90;;;;;;12916961;23;20217;-75
2022/01/04 02:09:38;;;;;;;10.60;7.40;;;10.00;99.90;;;;;;12888968;23;20208;-75
2022/01/04 02:14:46;;;;;;;9.87;6.90;;;10.10;99.90;;;;;;12917332;23;20843;-76
2022/01/04 02:19:46;;;;;;;7.47;5.97;;;10.10;99.90;;;;;;12888634;23;20212;-74
2022/01/04 02:24:47;;;;;;;10.20;6.13;;;10.00;99.90;;;;;;12915957;23;20261;-74
2022/01/04 02:29:51;;;;;;;7.97;5.43;;;10.00;99.90;;;;;;12915119;23;20543;-74
2022/01/04 02:34:53;;;;;;;8.53;4.80;;;10.10;99.90;;;;;;12916202;23;20196;-75
2022/01/04 02:39:55;;;;;;;9.37;5.30;;;10.10;99.90;;;;;;12917550;23;20199;-76
2022/01/04 02:44:55;;;;;;;8.03;5.00;;;10.10;99.90;;;;;;12917557;23;20432;-75
2022/01/04 02:49:56;;;;;;;6.03;4.73;;;10.10;99.90;;;;;;12917240;23;20202;-76
2022/01/04 02:54:57;;;;;;;7.63;5.00;;;10.10;99.90;;;;;;12892180;23;20224;-78
2022/01/04 02:59:57;;;;;;;6.77;4.93;;;10.10;99.90;;;;;;12890462;23;20224;-76
2022/01/04 03:04:58;;;;;;;10.17;5.30;;;10.10;99.90;;;;;;12915778;23;20201;-74
2022/01/04 03:09:59;;;;;;;9.37;6.27;;;10.10;99.90;;;;;;12890189;23;20212;-73
2022/01/04 03:14:59;;;;;;;13.70;7.40;;;10.10;99.90;;;;;;12916511;23;20202;-75
2022/01/04 03:20:00;;;;;;;11.70;7.07;;;10.10;99.90;;;;;;12888537;23;20197;-74
2022/01/04 03:25:01;;;;;;;11.10;6.37;;;10.10;99.90;;;;;;12915282;23;20864;-74
2022/01/04 03:30:01;;;;;;;13.60;7.13;;;10.10;99.90;;;;;;12915393;23;20235;-78
2022/01/04 03:35:02;;;;;;;9.97;5.93;;;10.10;99.90;;;;;;12896060;23;20226;-79
2022/01/04 03:40:05;;;;;;;12.60;6.77;;;10.10;99.90;;;;;;12898977;23;20233;-78
2022/01/04 03:45:06;;;;;;;9.80;6.17;;;10.10;99.90;;;;;;12896347;23;20246;-78
2022/01/04 03:50:07;;;;;;;8.43;6.17;;;10.10;99.90;;;;;;12903678;23;20686;-80
2022/01/04 03:55:09;;;;;;;11.77;5.30;;;10.10;99.90;;;;;;12896733;23;20194;-77
2022/01/04 04:00:10;;;;;;;6.57;5.17;;;10.20;99.90;;;;;;12886821;23;20157;-75
2022/01/04 04:05:10;;;;;;;8.17;5.17;;;10.10;99.90;;;;;;12916322;23;20162;-75
2022/01/04 04:10:11;;;;;;;7.10;5.10;;;10.10;99.90;;;;;;12916446;23;20182;-78
2022/01/04 04:15:12;;;;;;;7.23;5.20;;;10.10;99.90;;;;;;12893516;23;20196;-74
2022/01/04 04:20:15;;;;;;;9.90;6.03;;;10.10;99.90;;;;;;12914849;23;20142;-76
2022/01/04 04:25:16;;;;;;;8.03;5.40;;;10.10;99.90;;;;;;12915150;23;20153;-75
2022/01/04 04:30:23;;;;;;;6.67;4.77;;;10.10;99.90;;;;;;12913737;23;20171;-74
2022/01/04 04:35:24;;;;;;;9.83;5.13;;;10.10;99.90;;;;;;12914579;23;20221;-76
2022/01/04 04:40:25;;;;;;;6.47;5.20;;;10.10;99.90;;;;;;12886825;23;20194;-76
2022/01/04 04:45:26;;;;;;;8.57;5.53;;;10.10;99.90;;;;;;12914106;23;20465;-73
2022/01/04 04:50:27;;;;;;;9.33;6.10;;;10.10;99.90;;;;;;12913023;23;20205;-73
2022/01/04 04:55:27;;;;;;;7.90;6.77;;;10.10;99.90;;;;;;12913826;23;20213;-73
2022/01/04 05:00:28;;;;;;;8.63;6.67;;;10.10;99.90;;;;;;12913548;23;20201;-74
2022/01/04 05:05:28;;;;;;;10.13;6.63;;;10.10;99.90;;;;;;12914005;23;20203;-73
2022/01/04 05:10:29;;;;;;;8.87;6.80;;;10.10;99.90;;;;;;12913012;23;20672;-74
2022/01/04 05:15:29;;;;;;;10.67;7.70;;;10.00;99.90;;;;;;12914118;23;20248;-74
2022/01/04 05:20:30;;;;;;;8.80;6.57;;;10.10;99.90;;;;;;12912723;23;20559;-74
2022/01/04 05:25:30;;;;;;;14.10;8.17;;;10.10;99.90;;;;;;12912923;23;20196;-77
2022/01/04 05:30:31;;;;;;;11.43;8.20;;;10.00;99.90;;;;;;12912175;23;20237;-74
2022/01/04 05:35:31;;;;;;;10.50;8.30;;;10.00;99.90;;;;;;12913366;23;20582;-75
2022/01/04 05:40:35;;;;;;;9.40;7.80;;;10.00;99.90;;;;;;12912235;23;20887;-74
2022/01/04 05:45:36;;;;;;;11.00;8.67;;;10.00;99.90;;;;;;12913167;23;20202;-77
2022/01/04 05:50:38;;;;;;;12.43;9.73;;;10.00;99.90;;;;;;12886657;23;20198;-73
2022/01/04 05:55:38;;;;;;;15.97;10.13;;;10.00;99.90;;;;;;12912343;23;20209;-75
2022/01/04 06:00:39;;;;;;;16.20;10.13;;;10.10;99.90;;;;;;12885332;23;20633;-74
2022/01/04 06:05:40;;;;;;;13.30;9.63;;;10.10;99.90;;;;;;12885928;23;20213;-74
2022/01/04 06:10:43;;;;;;;10.17;8.50;;;10.10;99.90;;;;;;12885926;23;20721;-74
2022/01/04 06:15:43;;;;;;;10.00;8.20;;;10.10;99.90;;;;;;12912772;23;20205;-77
2022/01/04 06:20:45;;;;;;;13.40;8.43;;;10.00;99.90;;;;;;12911593;23;20197;-76
2022/01/04 06:25:46;;;;;;;14.33;9.00;;;10.10;99.90;;;;;;12914121;23;20198;-75
2022/01/04 06:30:49;;;;;;;10.53;8.53;;;10.10;99.90;;;;;;12885007;23;20223;-77
2022/01/04 06:35:50;;;;;;;9.50;7.60;;;10.00;99.90;;;;;;12911976;23;20212;-76
2022/01/04 06:40:50;;;;;;;9.50;7.57;;;10.00;99.90;;;;;;12886638;23;20660;-76
2022/01/04 06:45:51;;;;;;;10.80;7.30;;;10.00;99.90;;;;;;12889228;23;20202;-74
2022/01/04 06:50:51;;;;;;;10.33;7.30;;;10.00;99.90;;;;;;12887353;23;20197;-74
2022/01/04 06:55:53;;;;;;;10.90;7.03;;;10.00;99.90;;;;;;12915539;23;20225;-76
2022/01/04 07:00:53;;;;;;;9.10;7.23;;;10.00;99.90;;;;;;12914754;23;20204;-74
2022/01/04 07:05:54;;;;;;;10.70;7.50;;;10.00;99.90;;;;;;12915688;23;20207;-75
2022/01/04 07:10:54;;;;;;;11.80;7.77;;;10.00;99.90;;;;;;12887478;23;20200;-75
2022/01/04 07:15:55;;;;;;;11.60;8.33;;;10.00;99.90;;;;;;12915889;23;20559;-74
2022/01/04 07:20:56;;;;;;;11.50;8.70;;;10.00;99.90;;;;;;12915234;23;20792;-75
2022/01/04 07:25:56;;;;;;;12.70;9.23;;;10.10;99.90;;;;;;12914463;23;20212;-73
2022/01/04 07:30:57;;;;;;;12.93;9.50;;;10.00;99.90;;;;;;12887921;23;20217;-74
2022/01/04 07:35:58;;;;;;;12.43;10.23;;;10.10;99.90;;;;;;12915139;23;20248;-74
2022/01/04 07:40:58;;;;;;;11.00;9.47;;;10.10;99.90;;;;;;12886568;23;20588;-74
2022/01/04 07:45:59;;;;;;;10.37;8.07;;;10.10;99.90;;;;;;12914535;23;20196;-75
2022/01/04 07:51:00;;;;;;;14.70;9.20;;;10.10;99.90;;;;;;12888812;23;20322;-78
2022/01/04 07:56:00;;;;;;;10.97;8.33;;;10.10;99.90;;;;;;12916308;23;20205;-77
2022/01/04 08:01:01;;;;;;;10.07;7.17;;;10.10;99.90;;;;;;12896405;23;20205;-79
2022/01/04 08:06:04;;;;;;;10.53;7.47;;;10.20;99.90;;;;;;12896268;23;20227;-77
2022/01/04 08:11:05;;;;;;;8.10;6.30;;;10.20;99.90;;;;;;12921108;23;20200;-74
2022/01/04 08:16:05;;;;;;;8.70;6.13;;;10.20;99.90;;;;;;12915507;23;20281;-75
2022/01/04 08:21:07;;;;;;;15.03;7.63;;;10.30;99.90;;;;;;12915304;23;20242;-76
2022/01/04 08:26:07;;;;;;;10.40;7.63;;;10.30;99.90;;;;;;12889956;23;20231;-75
2022/01/04 08:31:08;;;;;;;12.63;7.60;;;10.30;99.90;;;;;;12914114;23;20546;-74
2022/01/04 08:36:10;;;;;;;8.50;6.00;;;10.30;99.90;;;;;;12886907;23;20232;-75
2022/01/04 08:41:11;;;;;;;7.43;6.10;;;10.30;99.90;;;;;;12886293;23;20207;-74
2022/01/04 08:46:12;;;;;;;10.13;7.40;;;10.10;99.90;;;;;;12915067;23;20200;-74
2022/01/04 08:51:13;;;;;;;7.10;5.00;;;10.00;99.90;;;;;;12913299;23;20201;-74
2022/01/04 08:56:18;;;;;;;4.87;3.57;;;9.60;99.90;;;;;;12887228;23;20232;-74
2022/01/04 09:01:19;;;;;;;1.97;1.43;;;9.30;99.90;;;;;;12922214;23;20202;-79
2022/01/04 09:06:21;;;;;;;2.63;0.80;;;9.00;99.90;;;;;;12901168;23;20291;-78
2022/01/04 09:11:23;;;;;;;1.90;0.80;;;8.80;99.90;;;;;;12923754;23;20200;-78
2022/01/04 09:21:43;;;;;;;1.23;1.00;;;8.40;99.90;;;;;;12925181;23;20206;-77
2022/01/04 09:26:47;;;;;;;3.00;1.20;;;8.30;99.90;;;;;;12889208;23;20248;-77
2022/01/04 09:31:51;;;;;;;1.40;1.30;;;8.40;99.90;;;;;;12894394;23;20213;-78
2022/01/04 09:36:57;;;;;;;2.40;1.50;;;8.50;99.90;;;;;;12896641;23;20215;-78
2022/01/04 09:42:01;;;;;;;2.37;1.23;;;8.50;99.90;;;;;;12888985;23;20200;-77
2022/01/04 09:47:05;;;;;;;1.37;0.90;;;8.50;99.90;;;;;;12889505;23;20209;-79
2022/01/04 09:52:09;;;;;;;1.57;1.07;;;8.50;99.90;;;;;;12887765;23;20274;-76
2022/01/04 09:57:13;;;;;;;1.67;1.47;;;8.50;99.90;;;;;;12916478;23;20209;-77
2022/01/04 10:02:17;;;;;;;1.30;1.20;;;8.50;99.90;;;;;;12889617;23;20196;-76
2022/01/04 10:07:23;;;;;;;1.80;1.47;;;8.50;99.90;;;;;;12914610;23;20279;-77
2022/01/04 10:12:23;;;;;;;3.53;1.73;;;8.60;99.90;;;;;;12892556;23;20213;-76
2022/01/04 10:17:30;;;;;;;1.43;1.33;;;8.50;99.90;;;;;;12890253;23;20220;-77
2022/01/04 10:22:35;;;;;;;2.47;1.90;;;8.40;99.90;;;;;;12918520;23;20683;-77
2022/01/04 10:27:37;;;;;;;2.30;2.10;;;8.50;99.90;;;;;;12889971;22;20207;-77
2022/01/04 10:32:48;;;;;;;2.47;2.07;;;8.50;99.90;;;;;;12891220;23;20240;-77
2022/01/04 10:37:49;;;;;;;2.50;1.90;;;8.50;99.90;;;;;;12917682;23;20209;-77
2022/01/04 10:42:53;;;;;;;1.60;1.50;;;8.60;99.90;;;;;;12890976;23;20217;-76
2022/01/04 10:47:54;;;;;;;3.27;2.13;;;8.70;99.90;;;;;;12917605;23;20626;-77
2022/01/04 10:52:54;;;;;;;3.57;1.57;;;8.70;99.90;;;;;;12891822;23;20202;-77
2022/01/04 10:57:55;;;;;;;2.67;2.00;;;8.70;99.90;;;;;;12890401;23;20217;-77
2022/01/04 11:03:00;;;;;;;2.57;2.30;;;8.70;99.90;;;;;;12895529;23;20226;-76
2022/01/04 11:08:07;;;;;;;5.67;1.97;;;8.70;99.90;;;;;;12922284;23;20216;-77
2022/01/04 11:13:07;;;;;;;2.53;1.67;;;8.70;99.90;;;;;;12902824;23;20594;-78
2022/01/04 11:18:11;;;;;;;1.57;1.27;;;8.80;99.90;;;;;;12895880;23;20233;-77
2022/01/04 11:23:13;;;;;;;3.57;1.83;;;8.80;99.90;;;;;;12918000;23;20209;-77
2022/01/04 11:28:15;;;;;;;3.17;1.60;;;8.80;99.90;;;;;;12924415;23;20325;-76
2022/01/04 11:33:25;;;;;;;4.47;2.07;;;8.80;99.90;;;;;;12888473;23;20821;-77
2022/01/04 11:38:34;;;;;;;2.40;1.87;;;8.80;99.90;;;;;;12889176;23;20231;-77
2022/01/04 11:43:40;;;;;;;2.20;2.00;;;8.80;99.90;;;;;;12924057;23;20291;-78
2022/01/04 11:48:45;;;;;;;4.23;1.50;;;8.80;99.90;;;;;;12919212;23;20576;-76
2022/01/04 11:54:15;;;;;;;1.37;1.20;;;8.70;99.90;;;;;;12919924;23;20201;-77
2022/01/04 11:59:25;;;;;;;3.60;1.20;;;8.60;99.90;;;;;;12919420;23;20214;-74
2022/01/04 12:05:05;;;;;;;2.20;1.10;;;8.40;99.90;;;;;;12914179;23;20223;-74
2022/01/04 12:10:25;;;;;;;1.97;1.10;;;8.50;99.90;;;;;;12914584;23;20192;-78
2022/01/04 12:15:34;;;;;;;1.87;0.90;;;8.50;99.90;;;;;;12892782;23;20269;-79
2022/01/04 12:20:58;;;;;;;2.00;0.87;;;8.50;99.90;;;;;;12895008;23;20261;-77
2022/01/04 12:26:04;;;;;;;3.17;0.87;;;8.40;99.90;;;;;;12887122;23;20204;-77
2022/01/04 12:31:20;;;;;;;4.37;0.83;;;8.40;99.90;;;;;;12885517;23;20215;-76
2022/01/04 12:36:35;;;;;;;1.23;0.90;;;8.40;99.90;;;;;;12884588;23;20211;-77
2022/01/04 12:41:37;;;;;;;1.43;0.80;;;8.40;99.90;;;;;;12912362;23;20213;-77
2022/01/04 12:46:42;;;;;;;1.80;0.77;;;8.40;99.90;;;;;;12905394;23;20208;-76
2022/01/04 12:51:46;;;;;;;1.27;1.00;;;8.50;99.90;;;;;;12877217;23;20290;-76
2022/01/04 12:56:59;;;;;;;2.07;1.00;;;8.60;99.90;;;;;;12906416;23;20703;-76
2022/01/04 13:02:14;;;;;;;2.80;1.10;;;8.70;99.90;;;;;;12907623;23;21080;-77
2022/01/04 13:07:35;;;;;;;1.40;0.57;;;8.70;99.90;;;;;;12908463;23;20210;-76
2022/01/04 13:12:41;;;;;;;1.47;0.60;;;8.70;99.90;;;;;;12879673;23;20703;-76
2022/01/04 13:17:47;;;;;;;0.50;0.50;;;8.60;99.90;;;;;;12879912;23;20291;-77
2022/01/04 13:22:48;;;;;;;1.67;0.53;;;8.50;99.90;;;;;;12883346;23;20206;-75
2022/01/04 13:27:49;;;;;;;4.33;1.30;;;8.60;99.90;;;;;;12905608;22;20640;-76
2022/01/04 13:32:53;;;;;;;1.00;0.70;;;8.60;99.90;;;;;;12908487;23;20295;-77
2022/01/04 13:38:10;;;;;;;2.00;1.07;;;8.50;99.90;;;;;;12909812;23;20231;-78
2022/01/04 13:43:17;;;;;;;3.10;0.90;;;8.50;99.90;;;;;;12887209;23;20228;-76
2022/01/04 13:48:27;;;;;;;3.10;0.90;;;8.50;99.90;;;;;;12913138;23;20538;-77
2022/01/04 13:53:34;;;;;;;3.37;1.83;;;8.50;99.90;;;;;;12921768;23;20295;-78
2022/01/04 13:58:45;;;;;;;1.63;1.20;;;8.30;99.90;;;;;;12918122;23;20216;-78
2022/01/04 14:03:50;;;;;;;2.27;1.20;;;8.30;99.90;;;;;;12922246;23;20203;-77
2022/01/04 14:08:50;;;;;;;1.73;0.97;;;8.30;99.90;;;;;;12891720;23;20208;-76
2022/01/04 14:14:04;;;;;;;1.83;1.30;;;8.20;99.90;;;;;;12923711;23;20779;-76
2022/01/04 14:19:11;;;;;;;2.10;1.40;;;8.20;99.90;;;;;;12889778;23;20215;-77
2022/01/04 14:24:39;;;;;;;1.77;1.33;;;8.10;99.90;;;;;;12905127;23;20196;-74
2022/01/04 14:29:42;;;;;;;1.93;1.40;;;8.10;99.90;;;;;;12892349;22;20208;-78
2022/01/04 14:34:43;;;;;;;1.50;1.10;;;8.10;99.90;;;;;;12896772;23;20211;-76
2022/01/04 14:39:43;;;;;;;1.63;1.20;;;8.10;99.90;;;;;;12915127;23;20237;-75
2022/01/04 14:44:48;;;;;;;2.83;1.40;;;8.00;99.90;;;;;;12923079;23;20196;-77
2022/01/04 14:49:49;;;;;;;2.23;1.10;;;8.00;99.90;;;;;;12890749;23;20266;-76
2022/01/04 14:54:50;;;;;;;2.60;1.07;;;7.90;99.90;;;;;;12895295;23;20254;-76
2022/01/04 14:59:56;;;;;;;2.43;1.43;;;7.90;99.90;;;;;;12886692;23;20205;-76
2022/01/04 15:04:58;;;;;;;1.47;1.37;;;8.00;99.90;;;;;;12919277;23;20274;-76
2022/01/04 15:09:59;;;;;;;2.53;1.70;;;7.90;99.90;;;;;;12888355;23;20234;-75
2022/01/04 15:15:02;;;;;;;4.27;1.60;;;7.90;99.90;;;;;;12888990;23;20772;-76
2022/01/04 15:20:03;;;;;;;1.80;1.70;;;7.90;99.90;;;;;;12887236;23;20232;-76
2022/01/04 15:25:07;;;;;;;2.20;1.80;;;7.90;99.90;;;;;;12919218;23;20180;-75
2022/01/04 15:30:09;;;;;;;1.63;1.40;;;7.90;99.90;;;;;;12890454;22;20176;-77
2022/01/04 15:35:12;;;;;;;2.40;1.90;;;7.90;99.90;;;;;;12875710;23;20164;-76
2022/01/04 15:40:15;;;;;;;1.57;1.47;;;7.90;99.90;;;;;;12913464;23;20179;-78
2022/01/04 15:45:19;;;;;;;2.00;1.57;;;7.80;99.90;;;;;;12896797;23;20171;-77
2022/01/04 15:50:20;;;;;;;2.90;2.00;;;7.80;99.90;;;;;;12891241;23;20152;-76
2022/01/04 15:55:22;;;;;;;2.37;1.83;;;7.80;99.90;;;;;;12915177;23;20152;-78
2022/01/04 16:00:27;;;;;;;2.53;1.50;;;7.80;99.90;;;;;;12918692;23;20137;-77
2022/01/04 16:05:29;;;;;;;1.93;1.80;;;7.80;99.90;;;;;;12894516;23;20206;-74
2022/01/04 16:10:29;;;;;;;3.30;2.10;;;7.80;99.90;;;;;;12920411;23;20284;-73
2022/01/04 16:16:01;;;;;;;3.67;2.20;;;7.80;99.90;;;;;;12902335;23;20246;-76
2022/01/04 16:26:33;;;;;;;1.77;1.53;;;7.70;99.90;;;;;;12922232;23;20207;-78
2022/01/04 16:31:36;;;;;;;1.70;1.60;;;7.60;99.90;;;;;;12922088;22;20218;-77
2022/01/04 16:36:39;;;;;;;2.37;2.00;;;7.60;99.90;;;;;;12892382;23;20207;-76
2022/01/04 16:41:47;;;;;;;2.70;2.23;;;7.60;99.90;;;;;;12889450;23;20560;-75
2022/01/04 16:46:49;;;;;;;3.00;2.30;;;7.60;99.90;;;;;;12926844;23;20562;-75
2022/01/04 16:51:50;;;;;;;3.90;3.20;;;7.70;99.90;;;;;;12921233;23;20207;-77
2022/01/04 16:56:51;;;;;;;4.70;4.30;;;7.60;99.90;;;;;;12898495;23;20290;-76
2022/01/04 17:01:52;;;;;;;6.97;4.70;;;7.60;99.90;;;;;;12902392;23;20199;-79
2022/01/04 17:06:53;;;;;;;7.07;5.50;;;7.70;99.90;;;;;;12888810;23;20226;-78
2022/01/04 17:17:17;;;;;;;6.40;5.40;;;7.70;99.90;;;;;;12863727;23;20214;-76
2022/01/04 17:22:18;;;;;;;6.13;4.37;;;7.60;99.90;;;;;;12921621;23;20203;-78
2022/01/04 17:27:20;;;;;;;8.03;4.67;;;7.60;99.90;;;;;;12897890;23;20250;-77
2022/01/04 17:32:21;;;;;;;5.30;4.13;;;7.60;99.90;;;;;;12898022;23;20234;-76
2022/01/04 17:37:22;;;;;;;4.37;3.87;;;7.50;99.90;;;;;;12893589;23;20211;-75
2022/01/04 17:42:23;;;;;;;5.73;4.73;;;7.40;99.90;;;;;;12888699;23;20199;-78
2022/01/04 17:47:24;;;;;;;6.73;4.53;;;7.40;99.90;;;;;;12917006;23;20553;-77
2022/01/04 17:52:25;;;;;;;4.17;3.53;;;7.40;99.90;;;;;;12918266;23;20745;-76
2022/01/04 17:57:26;;;;;;;5.70;3.97;;;7.40;99.90;;;;;;12918707;23;20245;-79
2022/01/04 18:02:29;;;;;;;5.20;4.13;;;7.30;99.90;;;;;;12905781;23;20252;-78
2022/01/04 18:07:33;;;;;;;6.87;4.97;;;7.30;99.90;;;;;;12903161;23;20234;-77
2022/01/04 18:12:34;;;;;;;6.83;4.00;;;7.20;99.90;;;;;;12899726;23;20199;-77
2022/01/04 18:17:35;;;;;;;6.43;3.83;;;7.20;99.90;;;;;;12895525;23;20218;-78
2022/01/04 18:22:36;;;;;;;4.23;3.80;;;7.10;99.90;;;;;;12898924;23;20286;-78
2022/01/04 18:27:38;;;;;;;4.93;3.77;;;7.10;99.90;;;;;;12898954;23;20199;-78
2022/01/04 18:32:41;;;;;;;6.33;5.17;;;7.20;99.90;;;;;;12940038;22;20222;-78
2022/01/04 18:37:42;;;;;;;7.63;6.00;;;7.20;99.90;;;;;;12902413;23;20230;-77
2022/01/04 18:42:45;;;;;;;7.10;6.37;;;7.20;99.90;;;;;;12902103;23;20240;-77
2022/01/04 18:47:48;;;;;;;8.83;6.50;;;7.20;99.90;;;;;;12927075;23;20660;-79
2022/01/04 18:52:49;;;;;;;9.90;8.43;;;7.20;99.90;;;;;;12903541;23;20207;-79
2022/01/04 18:57:51;;;;;;;10.60;8.40;;;7.10;99.90;;;;;;12896908;23;20203;-78
2022/01/04 19:02:51;;;;;;;8.77;7.80;;;7.10;99.90;;;;;;12903680;23;20282;-79
2022/01/04 19:07:52;;;;;;;7.10;6.40;;;7.10;99.90;;;;;;12902642;23;20254;-78
2022/01/04 19:12:56;;;;;;;9.47;6.47;;;7.10;99.90;;;;;;12901798;23;20195;-79
2022/01/04 19:17:57;;;;;;;7.10;5.93;;;7.00;99.90;;;;;;12905122;23;20204;-79
2022/01/04 19:22:57;;;;;;;7.20;6.20;;;7.10;99.90;;;;;;12933671;23;20225;-77
2022/01/04 19:27:58;;;;;;;7.37;5.70;;;7.00;99.90;;;;;;12903782;23;20199;-78
2022/01/04 19:38:01;;;;;;;6.50;5.90;;;7.00;99.90;;;;;;12932442;23;20203;-79
2022/01/04 19:43:02;;;;;;;7.30;6.50;;;7.10;99.90;;;;;;12933495;23;20200;-78
2022/01/04 19:48:03;;;;;;;6.93;6.23;;;7.00;99.90;;;;;;12929950;23;20282;-78
2022/01/04 19:53:04;;;;;;;7.67;6.50;;;7.00;99.90;;;;;;12928993;23;20542;-79
2022/01/04 19:58:04;;;;;;;8.27;7.33;;;7.00;99.90;;;;;;12930110;23;20207;-78
2022/01/04 20:03:05;;;;;;;8.83;7.80;;;7.00;99.90;;;;;;12935239;23;20203;-78
2022/01/04 20:08:06;;;;;;;8.97;8.07;;;7.10;99.90;;;;;;12938016;23;20545;-78
2022/01/04 20:13:13;;;;;;;8.17;7.20;;;7.10;99.90;;;;;;12929341;23;20209;-77
2022/01/04 20:18:17;;;;;;;9.10;8.20;;;7.10;99.90;;;;;;12902034;23;20215;-79
2022/01/04 20:23:19;;;;;;;10.33;8.03;;;7.10;99.90;;;;;;12909786;23;20195;-80
2022/01/04 20:28:23;;;;;;;8.80;7.90;;;7.10;99.90;;;;;;12867599;22;20310;-75
2022/01/04 20:33:25;;;;;;;8.87;7.43;;;7.10;99.90;;;;;;12893442;23;20718;-75
2022/01/04 20:38:28;;;;;;;8.10;7.17;;;7.10;99.90;;;;;;12916708;23;20679;-76
2022/01/04 20:44:07;;;;;;;;;;;;;;;;;;;;;
2022/01/04 20:54:57;;;;;;;7.53;6.73;;;7.20;99.90;;;;;;12929444;22;20277;-79
2022/01/04 20:59:59;;;;;;;7.87;6.57;;;7.10;99.90;;;;;;12825666;23;20212;-78
2022/01/04 21:04:59;;;;;;;7.73;7.03;;;7.20;99.90;;;;;;12844563;23;20230;-78
2022/01/04 21:10:01;;;;;;;8.00;7.30;;;7.10;99.90;;;;;;12843670;23;20224;-78
2022/01/04 21:15:03;;;;;;;8.33;7.40;;;7.10;99.90;;;;;;12866085;23;20191;-75
2022/01/04 21:20:15;;;;;;;8.67;7.87;;;7.20;99.90;;;;;;12869648;23;20659;-76
2022/01/04 21:25:17;;;;;;;8.77;7.40;;;7.10;99.90;;;;;;12862736;23;20608;-78
2022/01/04 21:30:18;;;;;;;9.00;8.10;;;7.10;99.90;;;;;;12834703;23;20156;-78
2022/01/04 21:35:23;;;;;;;9.10;7.93;;;7.10;99.90;;;;;;12820716;23;20171;-76
2022/01/04 21:40:27;;;;;;;8.83;7.23;;;7.00;99.90;;;;;;12807154;23;20656;-76
2022/01/04 21:45:32;;;;;;;8.60;7.80;;;7.00;99.90;;;;;;12832525;23;20191;-78
2022/01/04 21:50:35;;;;;;;8.43;7.63;;;7.00;99.90;;;;;;12832449;23;20203;-75
2022/01/04 21:55:39;;;;;;;9.50;8.57;;;7.00;99.90;;;;;;12852786;23;20192;-75
2022/01/04 22:00:40;;;;;;;8.27;7.37;;;7.00;99.90;;;;;;12830161;23;20204;-75
2022/01/04 22:05:41;;;;;;;8.10;7.30;;;7.00;99.90;;;;;;12853704;23;20526;-75
2022/01/04 22:10:45;;;;;;;7.43;6.73;;;7.00;99.90;;;;;;12827735;23;20215;-75
2022/01/04 22:15:47;;;;;;;9.57;6.80;;;7.00;99.90;;;;;;12831802;23;20231;-75
2022/01/04 22:20:47;;;;;;;7.90;7.20;;;7.00;99.90;;;;;;12830184;23;20192;-74
2022/01/04 22:25:49;;;;;;;7.43;6.73;;;7.00;99.90;;;;;;12827678;23;20207;-76
2022/01/04 22:30:50;;;;;;;8.87;7.10;;;7.00;99.90;;;;;;12830749;23;20204;-77
2022/01/04 22:35:52;;;;;;;7.97;7.20;;;7.00;99.90;;;;;;12832700;23;20204;-75
2022/01/04 22:40:53;;;;;;;10.07;8.00;;;7.00;99.90;;;;;;12834761;23;20199;-76
2022/01/04 22:45:54;;;;;;;9.23;8.33;;;7.00;99.90;;;;;;12833370;23;20254;-76
2022/01/04 22:50:57;;;;;;;8.80;7.90;;;7.10;99.90;;;;;;12830006;23;20583;-77
2022/01/04 22:55:59;;;;;;;10.40;8.00;;;7.10;99.90;;;;;;12856801;23;20208;-76
2022/01/04 23:01:02;;;;;;;8.07;7.17;;;7.10;99.90;;;;;;12814370;23;20243;-76
2022/01/04 23:06:03;;;;;;;7.33;6.47;;;7.10;99.90;;;;;;12830476;23;20204;-74
2022/01/04 23:11:05;;;;;;;8.70;7.10;;;7.10;99.90;;;;;;12857854;23;20548;-76
2022/01/04 23:16:07;;;;;;;6.03;5.43;;;7.10;99.90;;;;;;12856369;23;20251;-76
2022/01/04 23:21:08;;;;;;;7.03;6.30;;;7.00;99.90;;;;;;12856526;23;20200;-75
2022/01/04 23:26:12;;;;;;;7.60;6.80;;;7.00;99.90;;;;;;12831798;23;20207;-75
2022/01/04 23:31:12;;;;;;;6.97;6.27;;;7.00;99.90;;;;;;12831237;23;20263;-75
2022/01/04 23:36:13;;;;;;;5.93;5.27;;;7.10;99.90;;;;;;12829072;23;20204;-75
2022/01/04 23:41:14;;;;;;;5.27;4.83;;;7.10;99.90;;;;;;12856717;23;20202;-75
2022/01/04 23:46:15;;;;;;;5.60;5.10;;;7.10;99.90;;;;;;12836443;23;20207;-75
2022/01/04 23:51:16;;;;;;;5.90;5.20;;;7.10;99.90;;;;;;12829187;23;20200;-76
2022/01/04 23:56:16;;;;;;;4.47;4.07;;;7.00;99.90;;;;;;12829057;23;20211;-74
